Time;durP1;ratioP1;P1;durP2;ratioP2;P2;SDS_P1;SDS_P2;PMS_P1;PMS_P2;Temp;Humidity;BMP_temperature;BMP_pressure;BME280_temperature;BME280_humidity;BME280_pressure;Samples;Min_cycle;Max_cycle;Signal;HPM_P1;HPM_P2
2022/07/08 00:00:05;;;;;;;;;6.00;6.00;;;;;27.57;39.55;100674.50;146612;571;46010;-73
2022/07/08 00:02:57;;;;;;;;;5.25;5.25;;;;;27.56;39.90;100672.75;146608;563;45018;-71
2022/07/08 00:05:49;;;;;;;;;7.00;6.00;;;;;27.56;39.90;100678.06;146612;587;46011;-72
2022/07/08 00:08:41;;;;;;;;;7.00;7.00;;;;;27.58;39.72;100680.72;146608;599;46018;-72
2022/07/08 00:11:33;;;;;;;;;7.00;6.00;;;;;27.60;40.00;100674.47;146611;564;45018;-73
2022/07/08 00:14:26;;;;;;;;;6.25;6.25;;;;;27.67;40.27;100672.53;146610;708;46010;-75
2022/07/08 00:17:19;;;;;;;;;5.75;5.25;;;;;27.73;40.11;100669.75;146625;649;46010;-75
2022/07/08 00:20:12;;;;;;;;;7.00;6.00;;;;;27.77;40.09;100670.56;146628;570;45019;-71
2022/07/08 00:23:04;;;;;;;;;6.50;6.50;;;;;27.80;39.54;100666.06;146628;633;45030;-70
2022/07/08 00:25:57;;;;;;;;;7.25;5.00;;;;;27.82;39.68;100664.28;146635;580;46008;-71
2022/07/08 00:28:49;;;;;;;;;6.25;6.25;;;;;26.81;39.15;100486.97;146631;645;45011;-71
2022/07/08 00:31:41;;;;;;;;;8.00;7.00;;;;;27.77;39.63;100643.94;146626;575;46008;-71
2022/07/08 00:34:33;;;;;;;;;6.25;6.25;;;;;27.66;39.72;100641.47;146631;684;45011;-74
2022/07/08 00:37:25;;;;;;;;;5.00;5.00;;;;;27.53;39.50;100637.31;146629;569;45010;-71
2022/07/08 00:40:17;;;;;;;;;6.25;5.00;;;;;27.43;39.79;100625.09;146631;563;45012;-72
2022/07/08 00:43:10;;;;;;;;;5.75;5.25;;;;;27.32;39.89;100626.19;146630;708;46011;-72
2022/07/08 00:46:01;;;;;;;;;6.75;6.50;;;;;27.27;40.83;100625.38;146628;564;45012;-69
2022/07/08 00:48:54;;;;;;;;;7.25;6.00;;;;;27.22;41.11;100626.38;146628;618;45011;-69
2022/07/08 00:51:46;;;;;;;;;6.00;6.00;;;;;27.20;41.61;100617.53;146625;583;45018;-68
2022/07/08 00:54:39;;;;;;;;;8.00;6.50;;;;;27.23;41.63;100617.47;146630;612;45010;-69
2022/07/08 00:57:31;;;;;;;;;8.25;6.00;;;;;27.27;41.93;100619.19;146628;573;45030;-72
2022/07/08 01:00:23;;;;;;;;;7.75;6.50;;;;;27.28;41.74;100621.81;146623;718;46010;-70
2022/07/08 01:03:15;;;;;;;;;7.00;7.00;;;;;27.29;41.60;100628.91;146633;681;46010;-69
2022/07/08 01:06:08;;;;;;;;;7.50;7.25;;;;;27.27;41.56;100629.84;146633;658;45018;-71
2022/07/08 01:09:01;;;;;;;;;7.00;7.00;;;;;27.25;41.73;100629.84;146625;649;46010;-70
2022/07/08 01:11:53;;;;;;;;;7.50;7.50;;;;;27.22;41.64;100623.72;146633;660;45010;-71
2022/07/08 01:14:45;;;;;;;;;5.50;5.50;;;;;27.14;42.44;100623.87;146629;604;45010;-70
2022/07/08 01:17:48;;;;;;;;;6.50;6.00;;;;;27.03;42.12;100639.09;146607;656;46009;-76
2022/07/08 01:20:40;;;;;;;;;9.50;8.25;;;;;26.92;44.03;100631.34;146613;714;46010;-74
2022/07/08 01:23:32;;;;;;;;;7.75;7.25;;;;;26.83;43.99;100619.06;146611;675;46018;-74
2022/07/08 01:26:25;;;;;;;;;9.00;7.25;;;;;26.74;43.34;100616.56;146616;618;46010;-71
2022/07/08 01:29:19;;;;;;;;;9.00;7.75;;;;;26.59;43.15;100616.81;146607;684;45018;-71
2022/07/08 01:32:11;;;;;;;;;7.75;7.00;;;;;26.47;43.65;100612.53;146614;564;46010;-72
2022/07/08 01:35:04;;;;;;;;;9.25;7.75;;;;;26.42;43.69;100619.72;146609;580;46018;-72
2022/07/08 01:37:56;;;;;;;;;9.00;8.00;;;;;26.39;43.88;100610.00;146609;571;46018;-73
2022/07/08 01:40:48;;;;;;;;;8.00;6.00;;;;;26.39;43.46;100615.31;146612;685;46009;-74
2022/07/08 01:43:41;;;;;;;;;6.00;6.00;;;;;26.39;43.49;100612.66;146610;573;46010;-70
2022/07/08 01:46:33;;;;;;;;;6.25;6.25;;;;;26.39;42.37;100617.97;146610;680;46023;-69
2022/07/08 01:49:26;;;;;;;;;7.00;7.00;;;;;26.41;41.82;100612.63;146619;588;45018;-73
2022/07/08 01:52:18;;;;;;;;;7.25;6.00;;;;;26.39;42.51;100598.50;146615;613;46010;-70
2022/07/08 01:55:11;;;;;;;;;6.75;6.75;;;;;26.36;42.07;100614.50;146613;587;46010;-68
2022/07/08 01:58:03;;;;;;;;;6.00;6.00;;;;;26.26;42.02;100604.00;146604;708;46018;-68
2022/07/08 02:00:55;;;;;;;;;6.00;5.50;;;;;26.27;42.18;100611.06;146609;672;46018;-69
2022/07/08 02:03:47;;;;;;;;;8.00;7.00;;;;;26.29;42.35;100612.81;146612;631;46917;-72
2022/07/08 02:06:39;;;;;;;;;9.75;7.75;;;;;26.26;42.02;100611.06;146600;669;46018;-69
2022/07/08 02:09:31;;;;;;;;;7.00;7.00;;;;;26.22;42.20;100612.03;146613;614;46008;-69
2022/07/08 02:12:23;;;;;;;;;6.25;6.25;;;;;26.20;42.14;100608.50;146607;684;46010;-69
2022/07/08 02:15:16;;;;;;;;;9.25;8.00;;;;;26.12;42.69;100597.13;146615;666;46010;-69
2022/07/08 02:18:07;;;;;;;;;6.25;5.50;;;;;26.00;43.09;100587.56;146611;628;46012;-68
2022/07/08 02:21:00;;;;;;;;;8.00;6.50;;;;;25.88;43.34;100583.28;146614;683;46010;-70
2022/07/08 02:23:52;;;;;;;;;6.00;5.50;;;;;25.85;43.47;100591.28;146611;587;46010;-70
2022/07/08 02:26:45;;;;;;;;;6.00;6.00;;;;;25.78;43.26;100589.59;146601;675;46018;-69
2022/07/08 02:29:37;;;;;;;;;6.50;6.50;;;;;25.73;43.40;100594.97;146607;618;46010;-68
2022/07/08 02:32:29;;;;;;;;;10.67;7.00;;;;;25.80;43.12;100609.94;146613;611;46019;-70
2022/07/08 02:35:22;;;;;;;;;6.50;6.50;;;;;25.88;42.95;100617.81;146611;685;46018;-69
2022/07/08 02:38:14;;;;;;;;;5.75;4.75;;;;;25.94;42.56;100616.84;146616;625;46010;-70
2022/07/08 02:41:06;;;;;;;;;8.25;5.50;;;;;25.92;42.27;100623.97;146612;663;45035;-69
2022/07/08 02:43:58;;;;;;;;;6.75;6.00;;;;;25.92;42.14;100624.88;146612;569;46018;-71
2022/07/08 02:46:50;;;;;;;;;6.00;6.00;;;;;25.95;42.01;100623.91;146610;563;46018;-68
2022/07/08 02:49:42;;;;;;;;;7.00;6.50;;;;;25.90;41.96;100626.66;146613;710;45019;-68
2022/07/08 02:52:35;;;;;;;;;5.25;5.25;;;;;25.87;42.10;100618.72;146609;580;46010;-67
2022/07/08 02:55:27;;;;;;;;;7.00;5.75;;;;;25.87;41.63;100617.84;146604;617;45917;-68
2022/07/08 02:58:20;;;;;;;;;6.00;6.00;;;;;25.84;42.13;100632.03;146612;578;45046;-68
2022/07/08 03:01:12;;;;;;;;;6.25;6.25;;;;;25.81;42.30;100637.41;146609;613;46917;-69
2022/07/08 03:04:04;;;;;;;;;9.00;8.00;;;;;25.78;42.67;100645.38;146610;701;46010;-69
2022/07/08 03:06:56;;;;;;;;;6.00;6.00;;;;;25.75;42.55;100642.75;146610;571;45018;-68
2022/07/08 03:09:48;;;;;;;;;6.50;5.75;;;;;25.71;42.58;100644.56;146609;646;46019;-68
2022/07/08 03:12:40;;;;;;;;;7.75;7.75;;;;;25.69;42.70;100642.81;146615;680;46018;-68
2022/07/08 03:15:32;;;;;;;;;6.25;5.00;;;;;25.69;42.47;100638.38;146613;572;46018;-69
2022/07/08 03:18:25;;;;;;;;;6.00;6.00;;;;;25.70;42.54;100637.50;146609;564;46019;-69
2022/07/08 03:21:17;;;;;;;;;6.50;5.25;;;;;25.73;42.39;100640.13;146611;671;46010;-69
2022/07/08 03:24:10;;;;;;;;;7.00;6.25;;;;;25.83;41.86;100645.34;146603;570;46011;-70
2022/07/08 03:27:02;;;;;;;;;6.25;6.25;;;;;25.91;42.36;100638.16;146610;575;46047;-69
2022/07/08 03:29:54;;;;;;;;;6.50;5.75;;;;;26.03;42.03;100635.34;146612;573;45917;-70
2022/07/08 03:32:46;;;;;;;;;7.25;5.75;;;;;26.11;41.62;100645.88;146611;614;46010;-69
2022/07/08 03:35:38;;;;;;;;;7.00;7.00;;;;;26.12;41.78;100640.53;146611;595;46010;-69
2022/07/08 03:38:30;;;;;;;;;6.75;6.25;;;;;26.08;41.42;100641.47;146609;646;46010;-67
2022/07/08 03:41:26;;;;;;;;;8.25;7.00;;;;;26.04;41.40;100639.75;146615;647;46019;-70
2022/07/08 03:44:18;;;;;;;;;6.50;6.00;;;;;25.99;41.61;100634.50;146616;564;46010;-68
2022/07/08 03:47:11;;;;;;;;;8.25;6.25;;;;;25.97;41.62;100638.06;146612;564;46011;-68
2022/07/08 03:50:03;;;;;;;;;8.25;7.00;;;;;25.96;41.27;100634.53;146610;596;46010;-70
2022/07/08 03:52:55;;;;;;;;;6.50;6.00;;;;;26.01;41.22;100639.78;146606;632;46018;-71
2022/07/08 03:55:47;;;;;;;;;6.75;6.50;;;;;26.08;42.17;100627.31;146613;617;46011;-70
2022/07/08 03:58:40;;;;;;;;;10.75;8.00;;;;;26.14;41.96;100630.75;146610;717;45917;-71
2022/07/08 04:01:32;;;;;;;;;7.75;6.25;;;;;26.17;41.83;100635.16;146608;603;46010;-72
2022/07/08 04:04:27;;;;;;;;;6.25;6.25;;;;;26.23;42.31;100627.97;146610;702;46018;-71
2022/07/08 04:07:19;;;;;;;;;7.00;6.00;;;;;26.30;42.13;100634.06;146611;565;46010;-72
2022/07/08 04:10:12;;;;;;;;;9.75;8.25;;;;;26.34;42.25;100635.78;146607;577;46019;-71
2022/07/08 04:13:04;;;;;;;;;7.25;6.00;;;;;26.42;42.62;100641.00;146617;572;46010;-71
2022/07/08 04:16:00;;;;;;;;;7.00;7.00;;;;;26.50;42.89;100647.06;146610;602;46018;-71
2022/07/08 04:18:53;;;;;;;;;7.00;7.00;;;;;26.58;42.67;100653.16;146611;607;46010;-70
2022/07/08 04:21:45;;;;;;;;;9.75;9.00;;;;;26.64;42.21;100647.75;146602;565;46018;-70
2022/07/08 04:24:38;;;;;;;;;8.00;8.00;;;;;26.72;42.44;100650.28;146610;564;46010;-70
2022/07/08 04:27:31;;;;;;;;;9.25;8.00;;;;;26.82;43.00;100645.66;146611;550;46010;-70
2022/07/08 04:30:24;;;;;;;;;10.50;10.00;;;;;26.91;42.74;100640.19;146611;612;46010;-70
2022/07/08 04:33:17;;;;;;;;;10.50;10.25;;;;;26.94;42.80;100641.00;146606;576;46010;-71
2022/07/08 04:36:10;;;;;;;;;8.33;7.33;;;;;26.89;43.81;100634.03;146612;593;46010;-70
2022/07/08 04:39:02;;;;;;;;;9.50;8.00;;;;;26.80;43.68;100635.06;146614;586;46019;-70
2022/07/08 04:41:54;;;;;;;;;9.50;8.75;;;;;26.74;43.58;100628.97;146610;640;46915;-69
2022/07/08 04:44:46;;;;;;;;;8.25;8.00;;;;;26.69;44.22;100629.91;146606;580;46917;-70
2022/07/08 04:47:38;;;;;;;;;8.25;8.25;;;;;26.62;45.01;100638.03;146607;637;46012;-70
2022/07/08 04:50:31;;;;;;;;;9.50;8.50;;;;;26.55;45.72;100631.94;146603;600;46018;-70
2022/07/08 04:53:26;;;;;;;;;10.50;10.50;;;;;26.53;45.20;100632.88;146606;737;45018;-67
2022/07/08 04:56:18;;;;;;;;;9.25;8.25;;;;;26.49;45.71;100624.06;146610;612;46008;-67
2022/07/08 04:59:10;;;;;;;;;9.50;9.50;;;;;26.55;45.52;100631.06;146611;701;46010;-67
2022/07/08 05:02:02;;;;;;;;;10.50;10.50;;;;;26.63;46.37;100643.31;146608;564;46010;-68
2022/07/08 05:04:54;;;;;;;;;17.00;16.00;;;;;26.72;45.58;100639.63;146598;569;46012;-67
2022/07/08 05:07:49;;;;;;;;;21.75;17.25;;;;;26.82;45.07;100635.94;146602;569;46019;-67
2022/07/08 05:10:41;;;;;;;;;18.50;16.00;;;;;26.93;44.94;100639.28;146602;634;46018;-67
2022/07/08 05:13:33;;;;;;;;;18.00;16.00;;;;;27.04;44.63;100638.19;146602;612;45027;-69
2022/07/08 05:16:25;;;;;;;;;20.25;18.75;;;;;27.12;44.99;100647.81;146595;680;46019;-68
2022/07/08 05:19:17;;;;;;;;;16.75;15.50;;;;;27.18;45.58;100649.50;146595;593;46018;-67
2022/07/08 05:22:09;;;;;;;;;21.75;19.00;;;;;27.23;45.37;100662.72;146601;572;45018;-69
2022/07/08 05:25:01;;;;;;;;;19.50;18.25;;;;;27.23;45.21;100665.38;146601;607;46019;-69
2022/07/08 05:27:53;;;;;;;;;18.50;17.25;;;;;27.25;44.40;100672.44;146597;587;46018;-70
2022/07/08 05:30:45;;;;;;;;;19.75;17.25;;;;;27.26;43.80;100674.22;146600;607;46019;-71
2022/07/08 05:33:38;;;;;;;;;18.25;17.25;;;;;27.29;44.44;100673.25;146596;599;46010;-69
2022/07/08 05:36:30;;;;;;;;;18.75;15.50;;;;;27.34;44.30;100671.41;146601;575;46018;-68
2022/07/08 05:39:22;;;;;;;;;17.25;15.50;;;;;27.44;44.48;100672.09;146600;569;46019;-69
2022/07/08 05:42:15;;;;;;;;;15.75;15.00;;;;;27.55;43.89;100671.00;146603;617;46010;-70
2022/07/08 05:45:08;;;;;;;;;16.50;13.50;;;;;27.68;46.06;100676.06;146600;597;46010;-70
2022/07/08 05:48:00;;;;;;;;;16.25;14.25;;;;;27.82;45.24;100669.59;146595;585;46010;-69
2022/07/08 05:50:52;;;;;;;;;15.50;15.50;;;;;28.06;44.98;100660.19;146595;606;46018;-70
2022/07/08 05:53:45;;;;;;;;;15.75;14.75;;;;;28.35;45.29;100664.00;146594;570;46019;-70
2022/07/08 05:56:37;;;;;;;;;15.75;11.75;;;;;28.60;43.67;100660.75;146605;703;46010;-69
2022/07/08 05:59:29;;;;;;;;;16.50;14.00;;;;;28.82;43.91;100653.09;146596;572;46019;-70
2022/07/08 06:02:22;;;;;;;;;9.50;9.50;;;;;28.94;42.63;100651.03;146607;644;46018;-70
2022/07/08 06:05:15;;;;;;;;;8.67;8.67;;;;;29.04;42.79;100656.16;146611;588;46010;-68
2022/07/08 06:08:11;;;;;;;;;9.25;9.00;;;;;29.16;43.20;100654.03;146610;587;47018;-68
2022/07/08 06:11:08;;;;;;;;;8.75;7.00;;;;;29.37;42.43;100647.22;146609;680;46018;-70
2022/07/08 06:14:00;;;;;;;;;9.33;9.33;;;;;29.53;41.62;100650.34;146605;649;46018;-70
2022/07/08 06:16:52;;;;;;;;;8.25;8.25;;;;;29.59;41.47;100642.16;146605;572;45019;-68
2022/07/08 06:19:44;;;;;;;;;12.25;10.00;;;;;29.63;42.70;100653.69;146607;609;46012;-67
2022/07/08 06:22:36;;;;;;;;;14.50;12.75;;;;;29.76;43.00;100655.06;146603;566;46008;-67
2022/07/08 06:25:29;;;;;;;;;10.25;10.25;;;;;29.87;43.44;100654.75;146599;600;46010;-68
2022/07/08 06:28:21;;;;;;;;;11.00;9.00;;;;;29.96;44.03;100645.56;146613;673;45045;-67
2022/07/08 06:31:13;;;;;;;;;11.25;10.50;;;;;30.00;43.33;100657.91;146605;614;46018;-67
2022/07/08 06:34:06;;;;;;;;;11.25;11.00;;;;;30.01;43.81;100654.34;146608;613;46010;-68
2022/07/08 06:36:57;;;;;;;;;8.50;8.50;;;;;30.11;43.79;100643.31;146612;570;46010;-68
2022/07/08 06:39:50;;;;;;;;;10.50;9.50;;;;;30.30;44.09;100640.97;146606;627;46010;-68
2022/07/08 06:42:47;;;;;;;;;9.25;8.75;;;;;30.50;43.36;100635.00;146608;570;46018;-69
2022/07/08 06:45:39;;;;;;;;;11.00;10.50;;;;;30.64;42.97;100633.66;146600;639;46011;-69
2022/07/08 06:48:32;;;;;;;;;9.75;9.75;;;;;30.68;42.51;100633.47;146607;595;46010;-67
2022/07/08 06:51:24;;;;;;;;;10.00;10.00;;;;;30.79;41.34;100642.06;146609;579;46010;-70
2022/07/08 06:57:26;;;;;;;;;13.25;11.00;;;;;30.85;42.32;100645.47;146602;655;46018;-68
2022/07/08 07:00:22;;;;;;;;;9.50;8.50;;;;;30.85;42.31;100649.03;146605;564;46018;-67
2022/07/08 07:03:15;;;;;;;;;10.50;10.25;;;;;30.88;42.22;100650.72;146610;666;46010;-71
2022/07/08 07:06:07;;;;;;;;;9.50;9.25;;;;;30.90;42.29;100656.88;146610;570;46018;-66
2022/07/08 07:09:00;;;;;;;;;10.25;9.50;;;;;30.87;41.87;100654.31;146611;747;46018;-64
2022/07/08 07:11:52;;;;;;;;;10.00;9.00;;;;;30.88;41.88;100651.59;146603;578;46020;-68
2022/07/08 07:14:48;;;;;;;;;8.00;8.00;;;;;30.91;41.36;100650.63;146601;628;46019;-68
2022/07/08 07:18:00;;;;;;;;;14.00;10.00;;;;;30.94;40.19;100662.09;146609;617;46010;-66
2022/07/08 07:20:57;;;;;;;;;8.75;8.50;;;;;30.95;40.34;100657.63;146613;572;46010;-66
2022/07/08 07:23:55;;;;;;;;;11.25;10.50;;;;;30.92;39.75;100663.06;146607;678;46018;-68
2022/07/08 07:27:36;;;;;;;;;8.50;7.25;;;;;30.76;39.94;100673.41;146607;570;46010;-67
2022/07/08 07:30:30;;;;;;;;;9.25;8.00;;;;;30.65;40.70;100668.38;146610;622;46010;-71
2022/07/08 07:33:36;;;;;;;;;8.75;8.75;;;;;30.74;41.02;100667.22;146611;729;46010;-71
2022/07/08 08:00:09;;;;;;;;;;;;;;;;;;;;;
2022/07/08 08:03:11;;;;;;;;;7.75;6.75;;;;;31.41;40.25;100642.66;146612;575;46004;-73
2022/07/08 08:06:09;;;;;;;;;8.50;8.00;;;;;31.44;40.57;100650.56;146609;565;45917;-71
2022/07/08 08:09:29;;;;;;;;;11.25;10.75;;;;;30.57;40.39;100483.12;146616;699;45020;-72
2022/07/08 08:12:28;;;;;;;;;10.50;9.00;;;;;31.69;40.26;100659.44;146612;722;45010;-73
2022/07/08 08:15:32;;;;;;;;;9.50;9.50;;;;;31.73;40.22;100655.72;146598;581;46029;-71
2022/07/08 08:19:10;;;;;;;;;10.00;10.00;;;;;30.76;39.63;100497.59;146600;569;46018;-72
2022/07/08 08:22:34;;;;;;;;;7.67;7.67;;;;;31.86;38.71;100645.41;146602;594;46010;-72
2022/07/08 08:25:26;;;;;;;;;8.50;8.00;;;;;32.00;37.82;100641.38;146606;636;46010;-73
2022/07/08 08:28:18;;;;;;;;;8.25;7.00;;;;;32.12;37.74;100644.44;146602;632;46010;-72
2022/07/08 08:31:10;;;;;;;;;8.75;8.50;;;;;32.25;37.00;100643.94;146600;592;45026;-72
2022/07/08 08:34:03;;;;;;;;;7.75;7.50;;;;;31.34;37.73;100466.94;146602;575;46020;-73
2022/07/08 08:36:55;;;;;;;;;8.00;8.00;;;;;32.55;38.29;100656.12;146598;570;46010;-73
2022/07/08 08:39:47;;;;;;;;;9.75;9.75;;;;;32.69;37.18;100652.88;146604;569;45020;-72
2022/07/08 08:42:40;;;;;;;;;6.25;6.00;;;;;32.76;36.58;100653.50;146602;566;46010;-72
2022/07/08 08:45:34;;;;;;;;;7.50;7.50;;;;;32.77;36.72;100652.56;146600;621;46020;-73
2022/07/08 08:48:28;;;;;;;;;7.25;5.75;;;;;32.82;36.97;100659.47;146602;670;45018;-73
2022/07/08 08:51:25;;;;;;;;;8.00;7.00;;;;;32.83;38.43;100669.28;146601;589;45021;-72
2022/07/08 08:54:19;;;;;;;;;8.50;8.50;;;;;32.83;38.92;100669.28;146601;703;46008;-73
2022/07/08 08:57:12;;;;;;;;;7.75;7.25;;;;;32.83;39.33;100671.09;146603;656;45021;-73
2022/07/08 09:00:04;;;;;;;;;7.75;7.75;;;;;32.79;39.99;100682.91;146602;635;46008;-72
2022/07/08 09:02:57;;;;;;;;;9.00;9.00;;;;;32.81;41.04;100673.00;146609;622;45020;-72
2022/07/08 09:05:49;;;;;;;;;5.50;5.50;;;;;32.85;41.60;100674.59;146603;692;46008;-72
2022/07/08 09:08:42;;;;;;;;;8.00;8.00;;;;;32.83;41.23;100663.91;146603;636;45020;-72
2022/07/08 09:11:36;;;;;;;;;10.75;10.25;;;;;32.77;41.79;100652.56;146601;597;46011;-71
2022/07/08 09:14:28;;;;;;;;;11.75;11.50;;;;;32.74;41.42;100656.22;146599;613;46020;-72
2022/07/08 09:17:21;;;;;;;;;10.25;9.25;;;;;32.70;41.17;100646.56;146621;570;45018;-72
2022/07/08 09:20:13;;;;;;;;;8.50;5.75;;;;;32.62;41.40;100636.16;146625;576;46010;-73
2022/07/08 09:23:06;;;;;;;;;12.00;9.75;;;;;32.59;41.16;100625.56;146626;578;45923;-71
2022/07/08 09:26:00;;;;;;;;;10.50;10.50;;;;;32.75;40.76;100630.28;146629;660;46010;-72
2022/07/08 09:28:54;;;;;;;;;11.50;10.75;;;;;32.93;41.12;100621.44;146620;668;46010;-71
2022/07/08 09:31:46;;;;;;;;;9.75;9.75;;;;;33.01;40.29;100616.63;146621;659;45020;-70
2022/07/08 09:34:40;;;;;;;;;9.25;8.75;;;;;32.91;41.03;100620.63;146625;609;45018;-70
2022/07/08 09:37:36;;;;;;;;;9.25;9.25;;;;;32.75;41.13;100604.31;146621;583;46008;-71
2022/07/08 09:40:28;;;;;;;;;7.50;7.50;;;;;32.64;41.78;100598.50;146625;671;46010;-71
2022/07/08 09:43:21;;;;;;;;;10.25;10.25;;;;;32.57;42.64;100572.87;146621;574;45021;-71
2022/07/08 09:46:13;;;;;;;;;10.00;9.50;;;;;32.52;43.05;100570.38;146617;587;46922;-71
2022/07/08 09:49:05;;;;;;;;;11.50;9.75;;;;;32.46;43.63;100561.69;146619;585;45019;-72
2022/07/08 09:51:59;;;;;;;;;8.25;7.75;;;;;32.45;44.21;100573.38;146625;632;46010;-71
2022/07/08 09:55:06;;;;;;;;;10.75;10.75;;;;;32.34;43.83;100573.81;146614;654;45020;-71
2022/07/08 09:57:59;;;;;;;;;15.00;15.00;;;;;32.23;44.60;100582.28;146616;686;46011;-73
2022/07/08 10:00:53;;;;;;;;;10.75;10.00;;;;;32.18;43.51;100584.28;146620;588;46010;-72
2022/07/08 10:03:45;;;;;;;;;11.00;10.00;;;;;32.19;43.64;100580.69;146620;730;46010;-73
2022/07/08 10:06:37;;;;;;;;;14.25;13.25;;;;;32.13;43.19;100594.34;146619;601;46998;-72
2022/07/08 10:09:30;;;;;;;;;11.75;10.75;;;;;32.01;41.75;100594.81;146618;660;46010;-72
2022/07/08 10:12:23;;;;;;;;;12.50;12.25;;;;;31.86;41.72;100577.50;146618;633;46010;-72
2022/07/08 10:15:16;;;;;;;;;10.00;10.00;;;;;31.78;41.11;100574.22;146612;593;46012;-72
2022/07/08 10:18:35;;;;;;;;;12.00;12.00;;;;;31.74;40.91;100574.34;146597;570;46020;-72
2022/07/08 10:21:30;;;;;;;;;10.50;9.25;;;;;31.59;41.94;100588.38;146600;611;47010;-70
2022/07/08 10:24:29;;;;;;;;;12.25;12.25;;;;;31.47;41.71;100578.97;146599;599;46020;-72
2022/07/08 10:27:21;;;;;;;;;13.75;13.75;;;;;31.39;42.74;100591.78;146604;593;46008;-72
2022/07/08 10:30:22;;;;;;;;;10.75;10.75;;;;;31.44;42.11;100580.91;146594;604;46020;-72
2022/07/08 10:33:14;;;;;;;;;12.00;12.00;;;;;31.45;42.78;100588.88;146603;576;45019;-71
2022/07/08 10:36:11;;;;;;;;;16.00;16.00;;;;;31.48;42.45;100582.53;146606;579;46010;-73
2022/07/08 10:39:09;;;;;;;;;14.25;14.25;;;;;31.44;41.58;100578.22;146597;580;46010;-72
2022/07/08 10:42:22;;;;;;;;;14.00;12.00;;;;;31.37;41.37;100593.66;146600;569;46911;-72
2022/07/08 10:45:20;;;;;;;;;11.75;9.50;;;;;31.28;41.89;100576.06;146602;586;45018;-72
2022/07/08 10:48:14;;;;;;;;;12.50;12.50;;;;;31.28;41.58;100568.03;146597;599;46020;-74
2022/07/08 10:51:45;;;;;;;;;15.75;15.00;;;;;31.28;41.71;100565.38;146599;570;46018;-74
2022/07/08 10:54:39;;;;;;;;;12.25;12.25;;;;;31.01;41.17;100564.56;146598;572;46020;-72
2022/07/08 10:57:33;;;;;;;;;13.50;12.75;;;;;30.94;41.57;100551.47;146595;580;46019;-72
2022/07/08 11:00:25;;;;;;;;;15.50;15.50;;;;;30.94;41.96;100557.69;146600;643;46010;-72
2022/07/08 11:03:17;;;;;;;;;12.00;12.00;;;;;31.27;41.90;100543.97;146606;569;46018;-72
2022/07/08 11:06:09;;;;;;;;;14.75;12.50;;;;;31.62;40.81;100545.37;146607;576;46020;-72
2022/07/08 11:09:05;;;;;;;;;11.00;10.50;;;;;31.78;40.21;100521.50;146595;599;46018;-73
2022/07/08 11:11:58;;;;;;;;;11.75;11.00;;;;;31.85;41.29;100516.75;146599;576;46021;-74
2022/07/08 11:14:52;;;;;;;;;13.25;12.00;;;;;31.82;41.44;100522.25;146598;683;45923;-74
2022/07/08 11:17:50;;;;;;;;;9.25;9.25;;;;;31.84;41.91;100509.62;146626;582;46010;-72
2022/07/08 11:20:41;;;;;;;;;16.50;16.50;;;;;31.87;41.29;100498.78;146610;691;45019;-72
2022/07/08 11:23:34;;;;;;;;;12.00;10.50;;;;;32.00;41.19;100492.03;146618;564;46010;-72
2022/07/08 11:26:27;;;;;;;;;12.75;11.75;;;;;31.22;41.56;100321.84;146620;593;45011;-73
2022/07/08 11:29:24;;;;;;;;;17.75;15.75;;;;;32.19;41.34;100474.25;146617;605;45020;-74
2022/07/08 11:32:16;;;;;;;;;17.25;15.25;;;;;32.08;40.31;100473.81;146618;569;45018;-73
2022/07/08 11:35:09;;;;;;;;;13.50;12.00;;;;;31.80;41.34;100466.00;146614;604;45021;-73
2022/07/08 11:38:01;;;;;;;;;16.50;16.50;;;;;31.87;41.81;100454.09;146613;589;45020;-72
2022/07/08 11:40:54;;;;;;;;;14.50;14.50;;;;;32.01;41.37;100453.56;146616;656;46010;-73
2022/07/08 11:43:46;;;;;;;;;13.00;13.00;;;;;32.21;39.68;100450.00;146614;570;45018;-73
2022/07/08 11:46:49;;;;;;;;;13.00;13.00;;;;;32.42;40.06;100446.41;146615;651;45010;-73
2022/07/08 11:49:48;;;;;;;;;15.00;15.00;;;;;32.61;40.58;100438.44;146614;571;46010;-72
2022/07/08 11:52:40;;;;;;;;;14.75;13.25;;;;;32.83;39.79;100424.91;146622;664;45010;-72
2022/07/08 11:55:38;;;;;;;;;18.75;16.00;;;;;31.37;39.34;100172.16;146614;590;45019;-72
2022/07/08 11:58:30;;;;;;;;;13.50;13.50;;;;;32.76;39.28;100403.81;146619;569;45010;-71
2022/07/08 12:01:24;;;;;;;;;14.75;12.50;;;;;32.72;39.45;100402.22;146618;585;45021;-72
2022/07/08 12:04:16;;;;;;;;;14.75;13.00;;;;;32.65;38.76;100391.75;146613;566;46010;-72
2022/07/08 12:07:26;;;;;;;;;15.50;15.50;;;;;32.63;39.74;100403.50;146616;596;45010;-72
2022/07/08 12:10:25;;;;;;;;;13.75;13.00;;;;;32.57;40.11;100399.25;146619;638;45011;-72
2022/07/08 12:13:17;;;;;;;;;14.00;11.75;;;;;32.53;38.21;100408.41;146616;578;46010;-72
2022/07/08 12:16:10;;;;;;;;;15.25;14.25;;;;;32.39;39.34;100400.06;146607;611;45042;-72
2022/07/08 12:19:03;;;;;;;;;13.75;13.50;;;;;32.39;40.10;100408.09;146598;572;46019;-72
2022/07/08 12:21:56;;;;;;;;;14.75;14.00;;;;;32.36;40.05;100402.87;146599;569;46020;-72
2022/07/08 12:24:48;;;;;;;;;12.50;12.50;;;;;31.48;40.64;100228.81;146600;596;46010;-73
2022/07/08 12:27:41;;;;;;;;;18.50;18.50;;;;;32.38;41.54;100388.44;146600;678;46010;-72
2022/07/08 12:30:34;;;;;;;;;14.00;14.00;;;;;32.35;39.87;100395.78;146598;578;46922;-72
2022/07/08 12:33:32;;;;;;;;;13.00;12.00;;;;;32.21;38.92;100391.00;146604;622;46021;-72
2022/07/08 12:36:32;;;;;;;;;15.50;14.50;;;;;31.92;40.60;100387.75;146597;635;46010;-71
2022/07/08 12:39:31;;;;;;;;;13.75;13.75;;;;;31.70;41.18;100371.69;146601;631;45021;-72
2022/07/08 12:42:30;;;;;;;;;14.25;13.00;;;;;31.29;40.91;100373.34;146597;679;46010;-72
2022/07/08 12:45:22;;;;;;;;;15.75;14.25;;;;;31.30;41.13;100372.41;146599;604;46020;-73
2022/07/08 12:48:16;;;;;;;;;15.75;14.50;;;;;31.21;41.74;100362.94;146603;571;45019;-72
2022/07/08 12:51:08;;;;;;;;;13.00;13.00;;;;;31.03;40.49;100371.72;146601;575;46010;-72
2022/07/08 12:54:00;;;;;;;;;14.75;12.50;;;;;30.99;41.14;100367.41;146604;558;46010;-72
2022/07/08 12:56:55;;;;;;;;;13.75;13.75;;;;;31.04;42.27;100344.00;146595;564;46020;-72
2022/07/08 12:59:47;;;;;;;;;14.25;13.50;;;;;31.16;41.71;100337.28;146598;594;45018;-73
2022/07/08 13:02:41;;;;;;;;;12.75;12.75;;;;;31.28;40.96;100342.16;146600;615;46021;-72
2022/07/08 13:05:33;;;;;;;;;16.75;16.00;;;;;31.40;41.49;100327.41;146602;571;46008;-72
2022/07/08 13:08:25;;;;;;;;;14.75;12.50;;;;;31.52;40.25;100318.84;146602;572;46011;-72
2022/07/08 13:11:17;;;;;;;;;12.00;12.00;;;;;31.55;41.34;100317.84;146596;589;46018;-71
2022/07/08 13:14:10;;;;;;;;;14.25;13.00;;;;;31.34;41.35;100312.47;146604;602;46010;-72
2022/07/08 13:17:02;;;;;;;;;15.00;15.00;;;;;31.17;41.44;100312.25;146601;598;46010;-74
2022/07/08 13:19:54;;;;;;;;;14.75;13.25;;;;;31.08;39.96;100312.63;146601;645;47010;-73
2022/07/08 13:22:47;;;;;;;;;14.75;13.50;;;;;31.03;40.19;100318.16;146597;585;46018;-73
2022/07/08 13:25:39;;;;;;;;;11.75;11.50;;;;;31.01;40.22;100299.47;146600;595;46010;-72
2022/07/08 13:28:32;;;;;;;;;14.00;14.00;;;;;30.88;39.74;100302.72;146603;580;46010;-71
2022/07/08 13:31:25;;;;;;;;;13.25;13.25;;;;;30.52;39.66;100304.03;146601;574;45047;-73
2022/07/08 13:34:20;;;;;;;;;12.25;12.25;;;;;30.37;39.68;100302.81;146602;572;46010;-71
2022/07/08 13:37:12;;;;;;;;;16.00;14.00;;;;;30.25;39.64;100316.66;146602;581;46010;-72
2022/07/08 13:40:03;;;;;;;;;13.25;12.25;;;;;30.09;40.61;100302.03;146599;595;45923;-73
2022/07/08 13:42:56;;;;;;;;;14.25;14.25;;;;;30.01;40.47;100307.66;146603;664;46020;-74
2022/07/08 13:45:47;;;;;;;;;14.75;11.50;;;;;29.91;40.50;100322.28;146602;586;46008;-73
2022/07/08 13:48:40;;;;;;;;;14.50;14.00;;;;;29.95;41.54;100309.69;146599;611;45021;-73